Time;durP1;ratioP1;P1;durP2;ratioP2;P2;SDS_P1;SDS_P2;PMS_P1;PMS_P2;Temp;Humidity;BMP_temperature;BMP_pressure;BME280_temperature;BME280_humidity;BME280_pressure;Samples;Min_cycle;Max_cycle;Signal;HPM_P1;HPM_P2
2023/07/15 00:00:14;;;;;;;56.97;2.90;;;;;;;;;;4994755;28;20561;-71
2023/07/15 00:02:42;;;;;;;57.17;2.50;;;;;;;;;;4994950;28;20553;-71
2023/07/15 00:05:16;;;;;;;56.97;2.40;;;;;;;;;;4994726;28;20823;-71
2023/07/15 00:07:43;;;;;;;56.97;2.40;;;;;;;;;;4995045;28;20441;-71
2023/07/15 00:10:11;;;;;;;59.00;3.13;;;;;;;;;;4994363;28;20451;-71
2023/07/15 00:12:38;;;;;;;56.57;2.23;;;;;;;;;;4993178;28;20490;-71
2023/07/15 00:15:07;;;;;;;56.70;2.20;;;;;;;;;;4994175;28;20457;-71
2023/07/15 00:17:35;;;;;;;56.77;2.30;;;;;;;;;;4994442;28;20446;-71
2023/07/15 00:20:03;;;;;;;56.83;2.10;;;;;;;;;;4994153;28;20577;-71
2023/07/15 00:22:31;;;;;;;56.83;2.53;;;;;;;;;;4993966;28;20921;-71
2023/07/15 00:24:58;;;;;;;56.80;2.00;;;;;;;;;;4994040;28;20459;-71
2023/07/15 00:27:25;;;;;;;56.80;2.10;;;;;;;;;;4993874;28;20458;-71
2023/07/15 00:29:53;;;;;;;57.40;2.77;;;;;;;;;;4994052;28;20494;-71
2023/07/15 00:32:22;;;;;;;57.07;2.77;;;;;;;;;;4993788;28;20490;-70
2023/07/15 00:34:49;;;;;;;57.63;2.00;;;;;;;;;;4994189;28;20458;-70
2023/07/15 00:37:16;;;;;;;58.37;3.67;;;;;;;;;;4993838;28;20451;-70
2023/07/15 00:39:43;;;;;;;56.77;2.27;;;;;;;;;;4993809;28;21025;-71
2023/07/15 00:42:14;;;;;;;57.57;2.90;;;;;;;;;;4993938;28;20529;-71
2023/07/15 00:44:41;;;;;;;56.67;1.97;;;;;;;;;;4994080;28;20463;-71
2023/07/15 00:47:21;;;;;;;56.67;2.10;;;;;;;;;;4994210;28;20460;-70
2023/07/15 00:49:48;;;;;;;57.00;2.10;;;;;;;;;;4994000;28;20487;-70
2023/07/15 00:52:17;;;;;;;57.07;2.30;;;;;;;;;;4993440;28;20474;-71
2023/07/15 00:54:46;;;;;;;57.03;2.40;;;;;;;;;;4993626;28;20459;-70
2023/07/15 00:57:16;;;;;;;56.97;2.30;;;;;;;;;;4993596;28;20490;-70
2023/07/15 00:59:43;;;;;;;56.97;2.30;;;;;;;;;;4993720;28;21042;-71
2023/07/15 01:02:12;;;;;;;56.77;2.27;;;;;;;;;;4993299;28;20474;-71
2023/07/15 01:04:40;;;;;;;56.87;2.50;;;;;;;;;;4994048;28;20461;-70
2023/07/15 01:07:07;;;;;;;57.10;2.50;;;;;;;;;;4993361;28;20478;-70
2023/07/15 01:09:35;;;;;;;57.00;2.73;;;;;;;;;;4993403;28;20455;-70
2023/07/15 01:12:02;;;;;;;57.10;2.63;;;;;;;;;;4993353;28;20471;-70
2023/07/15 01:14:30;;;;;;;56.93;2.20;;;;;;;;;;4993454;28;20962;-70
2023/07/15 01:16:57;;;;;;;57.40;2.33;;;;;;;;;;4993324;28;20451;-70
2023/07/15 01:19:27;;;;;;;56.47;2.40;;;;;;;;;;4993263;28;20455;-70
2023/07/15 01:21:54;;;;;;;56.57;2.50;;;;;;;;;;4992900;28;21037;-70
2023/07/15 01:24:25;;;;;;;57.00;2.40;;;;;;;;;;4992259;28;20454;-70
2023/07/15 01:27:00;;;;;;;56.97;2.17;;;;;;;;;;4993281;28;20459;-70
2023/07/15 01:29:27;;;;;;;56.17;2.40;;;;;;;;;;4993153;28;20454;-70
2023/07/15 01:31:55;;;;;;;56.73;2.30;;;;;;;;;;4992568;28;21014;-70
2023/07/15 01:34:22;;;;;;;57.07;2.80;;;;;;;;;;4993215;28;20454;-70
2023/07/15 01:36:49;;;;;;;57.00;2.50;;;;;;;;;;4992886;28;20961;-70
2023/07/15 01:39:16;;;;;;;57.07;2.43;;;;;;;;;;4992925;28;20451;-70
2023/07/15 01:41:45;;;;;;;56.90;2.40;;;;;;;;;;4992466;28;20491;-70
2023/07/15 01:44:14;;;;;;;56.83;2.30;;;;;;;;;;4992900;28;20470;-70
2023/07/15 01:46:42;;;;;;;57.00;2.50;;;;;;;;;;4992721;28;20478;-70
2023/07/15 01:49:09;;;;;;;56.77;2.10;;;;;;;;;;4992469;28;20458;-70
2023/07/15 01:51:36;;;;;;;56.67;2.43;;;;;;;;;;4991158;28;20525;-70
2023/07/15 01:54:04;;;;;;;57.20;3.03;;;;;;;;;;4992728;28;20455;-71
2023/07/15 01:56:31;;;;;;;56.63;2.20;;;;;;;;;;4992373;28;20562;-70
2023/07/15 01:59:00;;;;;;;56.90;2.30;;;;;;;;;;4992630;28;20465;-71
2023/07/15 02:01:27;;;;;;;57.10;2.60;;;;;;;;;;4992260;28;20516;-70
2023/07/15 02:03:54;;;;;;;56.77;2.37;;;;;;;;;;4992290;28;20513;-70
2023/07/15 02:06:21;;;;;;;58.53;3.67;;;;;;;;;;4992322;28;20455;-70
2023/07/15 02:08:49;;;;;;;56.73;2.10;;;;;;;;;;4992628;28;20796;-70
2023/07/15 02:11:16;;;;;;;56.90;2.30;;;;;;;;;;4991565;28;20493;-70
2023/07/15 02:13:43;;;;;;;56.80;2.50;;;;;;;;;;4992099;28;20451;-70
2023/07/15 02:16:11;;;;;;;56.77;2.37;;;;;;;;;;4991979;28;20526;-70
2023/07/15 02:18:38;;;;;;;56.63;2.30;;;;;;;;;;4992098;28;20479;-69
2023/07/15 02:21:05;;;;;;;57.00;2.40;;;;;;;;;;4991970;28;20874;-69
2023/07/15 02:23:32;;;;;;;57.57;3.07;;;;;;;;;;4991993;28;20473;-69
2023/07/15 02:26:00;;;;;;;56.83;2.10;;;;;;;;;;4991951;28;20455;-69
2023/07/15 02:28:28;;;;;;;57.30;2.20;;;;;;;;;;4992168;28;20451;-70
2023/07/15 02:30:55;;;;;;;57.50;2.60;;;;;;;;;;4991619;28;20565;-70
2023/07/15 02:33:24;;;;;;;57.20;2.57;;;;;;;;;;4992068;28;20513;-69
2023/07/15 02:35:51;;;;;;;57.87;2.43;;;;;;;;;;4991771;28;20509;-70
2023/07/15 02:38:19;;;;;;;57.27;2.80;;;;;;;;;;4992098;28;20485;-69
2023/07/15 02:40:48;;;;;;;59.10;2.70;;;;;;;;;;4991575;28;20864;-69
2023/07/15 02:43:15;;;;;;;57.00;2.30;;;;;;;;;;4991784;28;20451;-70
2023/07/15 02:45:42;;;;;;;56.87;2.70;;;;;;;;;;4991605;28;20467;-69
2023/07/15 02:48:09;;;;;;;56.87;2.20;;;;;;;;;;4991997;28;20455;-69
2023/07/15 02:50:38;;;;;;;56.97;2.40;;;;;;;;;;4991382;28;20458;-69
2023/07/15 02:53:05;;;;;;;57.60;3.53;;;;;;;;;;4991660;28;20467;-69
2023/07/15 02:55:32;;;;;;;56.97;2.40;;;;;;;;;;4991697;28;20451;-69
2023/07/15 02:57:59;;;;;;;56.87;2.53;;;;;;;;;;4991745;28;20451;-70
2023/07/15 03:00:26;;;;;;;56.97;2.40;;;;;;;;;;4991622;28;20495;-69
2023/07/15 03:02:53;;;;;;;57.30;2.70;;;;;;;;;;4991822;28;20517;-69
2023/07/15 03:05:21;;;;;;;57.17;2.70;;;;;;;;;;4991565;28;20985;-69
2023/07/15 03:07:49;;;;;;;56.97;2.60;;;;;;;;;;4991662;28;20458;-69
2023/07/15 03:10:18;;;;;;;56.80;2.23;;;;;;;;;;4991396;28;20451;-69
2023/07/15 03:12:47;;;;;;;56.90;2.30;;;;;;;;;;4991694;28;20525;-69
2023/07/15 03:15:15;;;;;;;57.13;2.80;;;;;;;;;;4991815;28;20458;-69
2023/07/15 03:17:42;;;;;;;57.50;2.93;;;;;;;;;;4991494;28;20451;-69
2023/07/15 03:20:14;;;;;;;56.90;2.70;;;;;;;;;;4990927;28;20457;-69
2023/07/15 03:22:42;;;;;;;57.33;2.77;;;;;;;;;;4991916;28;20486;-70
2023/07/15 03:25:11;;;;;;;57.27;2.93;;;;;;;;;;4991428;28;20458;-69
2023/07/15 03:27:38;;;;;;;56.67;2.20;;;;;;;;;;4991682;28;20463;-70
2023/07/15 03:30:07;;;;;;;56.77;2.30;;;;;;;;;;4991650;28;20462;-69
2023/07/15 03:32:34;;;;;;;56.83;2.40;;;;;;;;;;4991580;28;20474;-69
2023/07/15 03:35:03;;;;;;;57.00;2.50;;;;;;;;;;4991434;28;20459;-69
2023/07/15 03:37:30;;;;;;;57.10;2.73;;;;;;;;;;4991328;28;20530;-69
2023/07/15 03:39:57;;;;;;;56.67;2.30;;;;;;;;;;4991364;28;20439;-69
2023/07/15 03:42:26;;;;;;;57.97;2.60;;;;;;;;;;4990788;28;20495;-69
2023/07/15 03:44:53;;;;;;;57.07;3.00;;;;;;;;;;4991078;28;20486;-70
2023/07/15 03:47:20;;;;;;;56.87;2.43;;;;;;;;;;4992262;28;20455;-69
2023/07/15 03:49:47;;;;;;;57.00;2.30;;;;;;;;;;4994884;28;20477;-70
2023/07/15 03:52:15;;;;;;;57.77;3.17;;;;;;;;;;4994394;28;20482;-70
2023/07/15 03:54:43;;;;;;;56.80;2.30;;;;;;;;;;4994870;28;20962;-69
2023/07/15 03:57:10;;;;;;;57.10;2.70;;;;;;;;;;4994911;28;20466;-70
2023/07/15 03:59:38;;;;;;;56.77;2.13;;;;;;;;;;4994821;28;20459;-69
2023/07/15 04:02:06;;;;;;;57.10;2.60;;;;;;;;;;4994385;28;21010;-70
2023/07/15 04:04:33;;;;;;;56.67;2.47;;;;;;;;;;4994505;28;20501;-70
2023/07/15 04:07:01;;;;;;;56.87;2.40;;;;;;;;;;4994332;28;20939;-70
2023/07/15 04:09:28;;;;;;;57.50;2.50;;;;;;;;;;4994874;28;20454;-70
2023/07/15 04:11:55;;;;;;;56.77;2.40;;;;;;;;;;4993658;28;20482;-70
2023/07/15 04:14:22;;;;;;;57.70;2.90;;;;;;;;;;4994483;28;20455;-70
2023/07/15 04:16:50;;;;;;;57.57;2.50;;;;;;;;;;4994382;28;20459;-70
2023/07/15 04:19:18;;;;;;;57.00;2.30;;;;;;;;;;4994550;28;20466;-70
2023/07/15 04:21:45;;;;;;;56.77;2.30;;;;;;;;;;4993719;28;20483;-70
2023/07/15 04:24:12;;;;;;;56.57;2.10;;;;;;;;;;4994487;28;20798;-70
2023/07/15 04:26:39;;;;;;;57.20;2.87;;;;;;;;;;4994313;28;20459;-70
2023/07/15 04:29:07;;;;;;;57.10;2.70;;;;;;;;;;4994143;28;20530;-70
2023/07/15 04:31:35;;;;;;;57.00;2.80;;;;;;;;;;4993832;28;20521;-70
2023/07/15 04:34:04;;;;;;;57.20;2.57;;;;;;;;;;4994066;28;20465;-70
2023/07/15 04:36:32;;;;;;;56.97;2.67;;;;;;;;;;4994292;28;20443;-70
2023/07/15 04:38:59;;;;;;;57.37;2.90;;;;;;;;;;4994206;28;20451;-69
2023/07/15 04:41:26;;;;;;;56.70;2.70;;;;;;;;;;4993750;28;20494;-70
2023/07/15 04:43:53;;;;;;;56.53;2.10;;;;;;;;;;4993829;28;20463;-70
2023/07/15 04:46:20;;;;;;;56.97;2.33;;;;;;;;;;4993401;28;20457;-70
2023/07/15 04:48:47;;;;;;;57.20;2.30;;;;;;;;;;4994115;28;20451;-70
2023/07/15 04:51:16;;;;;;;56.67;2.40;;;;;;;;;;4993725;28;20474;-69
2023/07/15 04:53:43;;;;;;;57.20;2.53;;;;;;;;;;4993850;28;20470;-70
2023/07/15 04:56:11;;;;;;;56.73;2.30;;;;;;;;;;4993664;28;21017;-69
2023/07/15 04:58:38;;;;;;;56.70;2.30;;;;;;;;;;4993520;28;20455;-70
2023/07/15 05:01:05;;;;;;;56.53;2.33;;;;;;;;;;4993088;28;20503;-70
2023/07/15 05:03:32;;;;;;;56.67;2.40;;;;;;;;;;4993926;28;20451;-69
2023/07/15 05:06:00;;;;;;;57.00;2.27;;;;;;;;;;4993669;28;20473;-70
2023/07/15 05:08:29;;;;;;;57.00;2.60;;;;;;;;;;4993636;28;20451;-70
2023/07/15 05:10:57;;;;;;;56.70;2.40;;;;;;;;;;4993236;28;20447;-70
2023/07/15 05:13:25;;;;;;;56.70;2.40;;;;;;;;;;4993851;28;20474;-70
2023/07/15 05:15:52;;;;;;;56.67;2.00;;;;;;;;;;4993494;28;20447;-70
2023/07/15 05:18:20;;;;;;;56.70;2.20;;;;;;;;;;4993264;28;20509;-70
2023/07/15 05:20:47;;;;;;;57.60;3.20;;;;;;;;;;4992842;28;20451;-70
2023/07/15 05:23:14;;;;;;;56.80;2.50;;;;;;;;;;4993255;28;20458;-70
2023/07/15 05:25:43;;;;;;;56.67;2.30;;;;;;;;;;4993098;28;20443;-70
2023/07/15 05:28:10;;;;;;;56.67;2.17;;;;;;;;;;4993072;28;20455;-71
2023/07/15 05:30:37;;;;;;;56.80;2.10;;;;;;;;;;4992825;28;20451;-70
2023/07/15 05:33:05;;;;;;;56.63;2.00;;;;;;;;;;4992987;28;20506;-71
2023/07/15 05:35:32;;;;;;;56.33;2.20;;;;;;;;;;4993020;28;20971;-71
2023/07/15 05:37:59;;;;;;;57.30;2.50;;;;;;;;;;4993046;28;20455;-71
2023/07/15 05:40:26;;;;;;;56.83;2.40;;;;;;;;;;4992549;28;20459;-70
2023/07/15 05:42:55;;;;;;;56.90;2.50;;;;;;;;;;4993084;28;20495;-70
2023/07/15 05:45:22;;;;;;;56.63;2.60;;;;;;;;;;4992734;28;20827;-71
2023/07/15 05:47:50;;;;;;;56.60;2.30;;;;;;;;;;4992897;28;20456;-71
2023/07/15 05:50:17;;;;;;;56.70;2.83;;;;;;;;;;4992423;28;20935;-70
2023/07/15 05:52:44;;;;;;;56.90;2.37;;;;;;;;;;4992728;28;20464;-71
2023/07/15 05:55:11;;;;;;;56.57;2.30;;;;;;;;;;4992682;28;20451;-71
2023/07/15 05:57:38;;;;;;;56.37;2.20;;;;;;;;;;4992734;28;20819;-70
2023/07/15 06:00:08;;;;;;;56.90;3.03;;;;;;;;;;4992601;28;20455;-70
2023/07/15 06:02:35;;;;;;;57.10;2.43;;;;;;;;;;4992469;28;20486;-70
2023/07/15 06:05:02;;;;;;;56.77;2.10;;;;;;;;;;4992184;28;20848;-70
2023/07/15 06:07:30;;;;;;;56.33;1.83;;;;;;;;;;4992142;28;20469;-71
2023/07/15 06:09:57;;;;;;;56.77;2.00;;;;;;;;;;4992066;28;20455;-71
2023/07/15 06:12:24;;;;;;;56.40;2.20;;;;;;;;;;4991379;28;20836;-71
2023/07/15 06:14:51;;;;;;;57.00;2.30;;;;;;;;;;4992317;28;20458;-71
2023/07/15 06:17:19;;;;;;;56.70;2.10;;;;;;;;;;4992136;28;20455;-71
2023/07/15 06:19:46;;;;;;;56.57;1.97;;;;;;;;;;4992300;28;20522;-70
2023/07/15 06:22:13;;;;;;;56.53;2.00;;;;;;;;;;4991545;28;20487;-70
2023/07/15 06:24:40;;;;;;;57.10;2.50;;;;;;;;;;4992369;28;20811;-70
2023/07/15 06:27:08;;;;;;;56.77;2.57;;;;;;;;;;4992503;28;20823;-71
2023/07/15 06:29:35;;;;;;;56.63;2.10;;;;;;;;;;4992085;28;20982;-70
2023/07/15 06:32:02;;;;;;;56.57;2.00;;;;;;;;;;4991860;28;20469;-70
2023/07/15 06:34:31;;;;;;;57.00;1.90;;;;;;;;;;4992119;28;20454;-71
2023/07/15 06:36:58;;;;;;;56.63;2.20;;;;;;;;;;4992046;28;20944;-71
2023/07/15 06:39:25;;;;;;;56.80;1.90;;;;;;;;;;4992116;28;20458;-70
2023/07/15 06:41:52;;;;;;;56.37;2.03;;;;;;;;;;4991946;28;20497;-71
2023/07/15 06:44:19;;;;;;;56.67;2.07;;;;;;;;;;4992108;28;20543;-71
2023/07/15 06:46:46;;;;;;;57.87;3.43;;;;;;;;;;4991892;28;21011;-71
2023/07/15 06:49:13;;;;;;;56.27;2.00;;;;;;;;;;4991822;28;20451;-71
2023/07/15 06:51:42;;;;;;;56.37;2.00;;;;;;;;;;4991476;28;20913;-71
2023/07/15 06:54:09;;;;;;;56.40;2.47;;;;;;;;;;4991876;28;20814;-70
2023/07/15 06:56:36;;;;;;;56.50;2.10;;;;;;;;;;4991761;28;20455;-71
2023/07/15 06:59:03;;;;;;;57.00;2.47;;;;;;;;;;4991803;28;20450;-70
2023/07/15 07:01:30;;;;;;;56.47;2.10;;;;;;;;;;4991725;28;20502;-71
2023/07/15 07:03:57;;;;;;;55.97;2.00;;;;;;;;;;4991612;28;20454;-71
2023/07/15 07:06:25;;;;;;;57.10;2.40;;;;;;;;;;4991543;28;20454;-71
2023/07/15 07:08:54;;;;;;;57.13;2.53;;;;;;;;;;4991850;28;20455;-71
2023/07/15 07:11:21;;;;;;;56.80;1.90;;;;;;;;;;4991541;28;20483;-71
2023/07/15 07:13:48;;;;;;;56.50;1.97;;;;;;;;;;4991466;28;20490;-70
2023/07/15 07:16:15;;;;;;;56.20;1.80;;;;;;;;;;4991411;28;20450;-71
2023/07/15 07:18:44;;;;;;;56.40;2.03;;;;;;;;;;4991716;28;20457;-70
2023/07/15 07:21:11;;;;;;;56.70;2.00;;;;;;;;;;4991398;28;20470;-71
2023/07/15 07:23:38;;;;;;;56.40;2.00;;;;;;;;;;4994495;28;20450;-70
2023/07/15 07:26:07;;;;;;;56.37;1.80;;;;;;;;;;4995431;28;20955;-71
2023/07/15 07:28:41;;;;;;;57.00;2.60;;;;;;;;;;4995553;28;20450;-71
2023/07/15 07:31:08;;;;;;;56.30;1.93;;;;;;;;;;4995016;28;20559;-70
2023/07/15 07:33:36;;;;;;;56.07;1.77;;;;;;;;;;4995293;28;20459;-71
2023/07/15 07:36:03;;;;;;;55.77;1.80;;;;;;;;;;4995354;28;20461;-71
2023/07/15 07:38:30;;;;;;;56.27;1.93;;;;;;;;;;4995311;28;21006;-71
2023/07/15 07:41:04;;;;;;;57.00;2.57;;;;;;;;;;4994980;28;20455;-71
2023/07/15 07:43:32;;;;;;;56.50;1.90;;;;;;;;;;4994982;28;20860;-71
2023/07/15 07:46:00;;;;;;;56.07;1.97;;;;;;;;;;4995188;28;20824;-70
2023/07/15 07:48:27;;;;;;;57.20;2.17;;;;;;;;;;4995065;28;20455;-70
2023/07/15 07:50:54;;;;;;;56.50;1.90;;;;;;;;;;4994728;28;20439;-71
2023/07/15 07:53:21;;;;;;;56.00;1.70;;;;;;;;;;4994987;28;20461;-71
2023/07/15 07:55:48;;;;;;;56.50;2.00;;;;;;;;;;4994720;28;20936;-71
2023/07/15 07:58:16;;;;;;;56.90;2.30;;;;;;;;;;4995144;28;20457;-71
2023/07/15 08:00:45;;;;;;;56.27;1.90;;;;;;;;;;4994587;28;20450;-71
2023/07/15 08:03:12;;;;;;;55.77;1.80;;;;;;;;;;4994699;28;20487;-71
2023/07/15 08:05:41;;;;;;;56.30;2.20;;;;;;;;;;4994869;28;20458;-70
2023/07/15 08:08:09;;;;;;;56.40;1.93;;;;;;;;;;4994712;28;20461;-71
2023/07/15 08:10:36;;;;;;;56.30;1.80;;;;;;;;;;4994452;28;20457;-71
2023/07/15 08:13:05;;;;;;;56.00;2.10;;;;;;;;;;4993676;28;20488;-71
2023/07/15 08:15:32;;;;;;;56.07;1.80;;;;;;;;;;4994615;28;20457;-71
2023/07/15 08:18:01;;;;;;;56.63;1.90;;;;;;;;;;4994516;28;20455;-71
2023/07/15 08:20:29;;;;;;;56.47;2.07;;;;;;;;;;4994261;28;20455;-70
2023/07/15 08:22:56;;;;;;;56.10;1.90;;;;;;;;;;4994061;28;20491;-71
2023/07/15 08:25:23;;;;;;;56.67;2.17;;;;;;;;;;4994337;28;20451;-71
2023/07/15 08:27:51;;;;;;;56.37;2.10;;;;;;;;;;4994528;28;20458;-69
2023/07/15 08:30:18;;;;;;;56.07;1.80;;;;;;;;;;4994190;28;20491;-70
2023/07/15 08:32:45;;;;;;;56.00;1.80;;;;;;;;;;4994033;28;20473;-70
2023/07/15 08:35:14;;;;;;;56.90;1.97;;;;;;;;;;4994129;28;20474;-70
2023/07/15 08:37:41;;;;;;;55.90;1.80;;;;;;;;;;4994089;28;20606;-70
2023/07/15 08:40:09;;;;;;;55.87;1.70;;;;;;;;;;4994045;28;20454;-70
2023/07/15 08:42:36;;;;;;;56.50;1.97;;;;;;;;;;4994068;28;20553;-70
2023/07/15 08:45:04;;;;;;;56.50;1.90;;;;;;;;;;4993763;28;20958;-71
2023/07/15 08:47:31;;;;;;;56.20;1.77;;;;;;;;;;4993923;28;20462;-70
2023/07/15 08:50:01;;;;;;;55.87;1.63;;;;;;;;;;4993976;28;20823;-71
2023/07/15 08:52:31;;;;;;;55.97;1.60;;;;;;;;;;4993900;28;20473;-71
2023/07/15 08:54:58;;;;;;;55.80;1.50;;;;;;;;;;4993784;28;20455;-71
2023/07/15 08:57:26;;;;;;;56.00;1.90;;;;;;;;;;4993908;28;20443;-71
2023/07/15 08:59:55;;;;;;;55.57;1.63;;;;;;;;;;4993863;28;20451;-71
2023/07/15 09:02:22;;;;;;;55.63;1.70;;;;;;;;;;4993345;28;20553;-71
2023/07/15 09:04:49;;;;;;;56.40;2.03;;;;;;;;;;4993560;28;20458;-71
2023/07/15 09:07:17;;;;;;;55.83;1.80;;;;;;;;;;4993677;28;20943;-71
2023/07/15 09:09:45;;;;;;;55.70;1.80;;;;;;;;;;4993508;28;20455;-71
2023/07/15 09:12:12;;;;;;;55.90;2.00;;;;;;;;;;4993251;28;20469;-71
2023/07/15 09:14:40;;;;;;;56.20;1.80;;;;;;;;;;4993553;28;20491;-71
2023/07/15 09:17:07;;;;;;;56.07;1.90;;;;;;;;;;4992863;28;20447;-71
2023/07/15 09:19:34;;;;;;;55.63;1.80;;;;;;;;;;4993552;28;20451;-71
2023/07/15 09:22:05;;;;;;;56.10;2.00;;;;;;;;;;4992800;28;21045;-71
2023/07/15 09:24:32;;;;;;;56.00;1.67;;;;;;;;;;4993427;28;20455;-72
2023/07/15 09:27:02;;;;;;;56.10;1.90;;;;;;;;;;4992810;28;20455;-71
2023/07/15 09:29:29;;;;;;;55.67;1.50;;;;;;;;;;4992680;28;20454;-71
2023/07/15 09:31:56;;;;;;;55.97;1.80;;;;;;;;;;4991777;28;20892;-71
2023/07/15 09:34:24;;;;;;;55.67;1.60;;;;;;;;;;4993125;28;20455;-71
2023/07/15 09:36:51;;;;;;;55.53;1.60;;;;;;;;;;4993087;28;20553;-71
2023/07/15 09:39:19;;;;;;;55.70;1.87;;;;;;;;;;4992774;28;20455;-71
2023/07/15 09:41:59;;;;;;;55.87;1.80;;;;;;;;;;4992441;28;20533;-69
2023/07/15 09:44:35;;;;;;;63.93;2.27;;;;;;;;;;4992287;28;20459;-70
2023/07/15 09:47:03;;;;;;;56.37;2.03;;;;;;;;;;4992425;28;20537;-70
2023/07/15 09:49:30;;;;;;;56.13;1.93;;;;;;;;;;4992914;28;20864;-70
2023/07/15 09:51:58;;;;;;;56.40;2.30;;;;;;;;;;4992565;28;20475;-71
2023/07/15 09:54:26;;;;;;;55.57;1.67;;;;;;;;;;4992665;28;20447;-70
2023/07/15 09:56:55;;;;;;;56.00;1.80;;;;;;;;;;4992389;28;20455;-70
2023/07/15 09:59:22;;;;;;;55.57;1.73;;;;;;;;;;4992679;28;20459;-70
2023/07/15 10:01:54;;;;;;;55.70;1.57;;;;;;;;;;4992307;28;20481;-70
2023/07/15 10:04:23;;;;;;;56.10;2.00;;;;;;;;;;4992625;28;20494;-70
2023/07/15 10:06:51;;;;;;;55.90;2.00;;;;;;;;;;4992389;28;20453;-70
2023/07/15 10:09:19;;;;;;;55.73;2.00;;;;;;;;;;4992441;28;20550;-70
2023/07/15 10:11:47;;;;;;;55.70;1.77;;;;;;;;;;4991338;28;20974;-70
2023/07/15 10:14:14;;;;;;;56.20;2.40;;;;;;;;;;4992081;28;20447;-70
2023/07/15 10:16:41;;;;;;;55.53;1.60;;;;;;;;;;4992156;28;20457;-70
2023/07/15 10:19:35;;;;;;;55.70;1.80;;;;;;;;;;4984326;28;20451;-70
2023/07/15 10:22:02;;;;;;;55.37;1.63;;;;;;;;;;4991691;28;20475;-71
2023/07/15 10:24:30;;;;;;;55.43;1.50;;;;;;;;;;4992381;28;20494;-70
2023/07/15 10:26:57;;;;;;;55.40;2.00;;;;;;;;;;4992506;28;20541;-71
2023/07/15 10:29:24;;;;;;;55.10;1.40;;;;;;;;;;4992229;28;20466;-71
2023/07/15 10:32:06;;;;;;;55.00;1.70;;;;;;;;;;4991874;28;20478;-71
2023/07/15 10:34:38;;;;;;;54.93;1.80;;;;;;;;;;4992123;28;20807;-71
2023/07/15 10:37:09;;;;;;;55.20;1.70;;;;;;;;;;4991849;28;20457;-71
2023/07/15 10:39:36;;;;;;;55.20;1.80;;;;;;;;;;4991501;28;20460;-71
2023/07/15 10:42:08;;;;;;;54.63;1.70;;;;;;;;;;4991302;28;20478;-71
2023/07/15 10:44:40;;;;;;;54.77;1.70;;;;;;;;;;4991458;28;20498;-71
2023/07/15 10:47:07;;;;;;;54.67;1.60;;;;;;;;;;4991930;28;20505;-71
2023/07/15 10:49:34;;;;;;;55.60;1.90;;;;;;;;;;4991999;28;20842;-71
2023/07/15 10:52:03;;;;;;;54.63;1.50;;;;;;;;;;4991669;28;20911;-70
2023/07/15 10:54:31;;;;;;;55.07;1.80;;;;;;;;;;4991692;28;20455;-70
2023/07/15 10:56:58;;;;;;;55.37;2.20;;;;;;;;;;4991499;28;20446;-70
2023/07/15 10:59:33;;;;;;;54.63;1.57;;;;;;;;;;4991653;28;20455;-71
2023/07/15 11:02:00;;;;;;;55.17;1.87;;;;;;;;;;4991625;28;20482;-71
2023/07/15 11:04:28;;;;;;;55.10;2.00;;;;;;;;;;4991733;28;20487;-71
2023/07/15 11:06:59;;;;;;;54.97;1.90;;;;;;;;;;4991636;28;20461;-71
2023/07/15 11:09:27;;;;;;;54.97;2.00;;;;;;;;;;4991734;28;20814;-71
2023/07/15 11:11:54;;;;;;;54.97;1.87;;;;;;;;;;4991167;28;20470;-71
2023/07/15 11:14:22;;;;;;;55.03;2.00;;;;;;;;;;4991835;28;20443;-71
2023/07/15 11:16:51;;;;;;;55.10;2.17;;;;;;;;;;4991594;28;20940;-70
2023/07/15 11:19:18;;;;;;;55.20;1.90;;;;;;;;;;4991555;28;20450;-70
2023/07/15 11:21:45;;;;;;;55.50;1.50;;;;;;;;;;4991181;28;20467;-71
2023/07/15 11:24:12;;;;;;;55.70;1.80;;;;;;;;;;4991330;28;20483;-71
2023/07/15 11:26:41;;;;;;;54.97;1.97;;;;;;;;;;4991687;28;20473;-70
2023/07/15 11:29:15;;;;;;;55.70;2.13;;;;;;;;;;4991613;28;20840;-70
2023/07/15 11:31:42;;;;;;;55.27;2.10;;;;;;;;;;4991157;28;20471;-70
2023/07/15 11:34:10;;;;;;;55.50;1.90;;;;;;;;;;4991420;28;20451;-71
2023/07/15 11:36:38;;;;;;;54.90;1.57;;;;;;;;;;4991347;28;20452;-71
2023/07/15 11:39:05;;;;;;;55.33;2.00;;;;;;;;;;4991253;28;20454;-71
2023/07/15 11:41:33;;;;;;;54.83;1.90;;;;;;;;;;4991035;28;20475;-71
2023/07/15 11:44:01;;;;;;;55.27;2.33;;;;;;;;;;4991322;28;20541;-71
2023/07/15 11:46:29;;;;;;;54.40;1.90;;;;;;;;;;4991263;28;20446;-71
2023/07/15 11:48:59;;;;;;;54.47;1.50;;;;;;;;;;4991219;28;20496;-71
2023/07/15 11:51:26;;;;;;;54.80;1.70;;;;;;;;;;4990887;28;20475;-71
2023/07/15 11:53:54;;;;;;;54.80;2.10;;;;;;;;;;4991551;28;20442;-71
2023/07/15 11:56:37;;;;;;;54.10;1.80;;;;;;;;;;4991146;28;20505;-71
2023/07/15 11:59:06;;;;;;;54.07;2.00;;;;;;;;;;4991278;28;20821;-71
2023/07/15 12:01:33;;;;;;;54.20;2.10;;;;;;;;;;4990882;28;21009;-71
2023/07/15 12:04:00;;;;;;;53.67;2.20;;;;;;;;;;4990986;28;20490;-71
2023/07/15 12:06:28;;;;;;;54.80;2.40;;;;;;;;;;4990963;28;20978;-71
2023/07/15 12:09:05;;;;;;;54.40;2.10;;;;;;;;;;4992743;28;20450;-71
2023/07/15 12:11:32;;;;;;;54.37;2.37;;;;;;;;;;4993695;28;20474;-71
2023/07/15 12:14:01;;;;;;;54.10;2.00;;;;;;;;;;4994316;28;20810;-71
2023/07/15 12:16:30;;;;;;;54.20;2.03;;;;;;;;;;4994302;28;20429;-71
2023/07/15 12:18:58;;;;;;;53.83;1.87;;;;;;;;;;4994520;28;20542;-71
2023/07/15 12:21:25;;;;;;;53.97;2.00;;;;;;;;;;4994345;28;20477;-71
2023/07/15 12:23:52;;;;;;;53.70;1.97;;;;;;;;;;4994436;28;20447;-71
2023/07/15 12:26:20;;;;;;;53.97;2.30;;;;;;;;;;4994234;28;20426;-71
2023/07/15 12:28:47;;;;;;;53.90;2.37;;;;;;;;;;4994267;28;20451;-71
2023/07/15 12:31:14;;;;;;;53.90;2.20;;;;;;;;;;4994116;28;20505;-72
2023/07/15 12:33:43;;;;;;;54.07;2.20;;;;;;;;;;4994309;28;20490;-71
2023/07/15 12:36:11;;;;;;;54.27;2.30;;;;;;;;;;4994192;28;20451;-72
2023/07/15 12:38:38;;;;;;;54.00;2.10;;;;;;;;;;4993962;28;20990;-71
2023/07/15 12:41:06;;;;;;;54.03;2.30;;;;;;;;;;4993778;28;20477;-72
2023/07/15 12:43:33;;;;;;;54.47;2.50;;;;;;;;;;4993965;28;20461;-71
2023/07/15 12:46:17;;;;;;;54.10;2.40;;;;;;;;;;4994549;28;20458;-71
2023/07/15 12:48:48;;;;;;;53.97;2.17;;;;;;;;;;4993458;28;20459;-72
2023/07/15 12:51:15;;;;;;;54.30;2.50;;;;;;;;;;4993684;28;20493;-71
2023/07/15 12:53:42;;;;;;;53.83;2.13;;;;;;;;;;4993745;28;20492;-71
2023/07/15 12:56:13;;;;;;;54.10;2.10;;;;;;;;;;4993825;28;20433;-71
2023/07/15 12:58:40;;;;;;;53.97;2.20;;;;;;;;;;4993804;28;20446;-71
2023/07/15 13:01:07;;;;;;;54.40;2.50;;;;;;;;;;4993612;28;20479;-71
2023/07/15 13:03:35;;;;;;;54.50;2.20;;;;;;;;;;4993828;28;20513;-71
2023/07/15 13:06:03;;;;;;;54.07;1.80;;;;;;;;;;4993721;28;20418;-71
2023/07/15 13:08:30;;;;;;;54.00;1.90;;;;;;;;;;4993876;28;20458;-71
2023/07/15 13:10:57;;;;;;;53.87;1.80;;;;;;;;;;4993098;28;21037;-71
2023/07/15 13:13:24;;;;;;;53.57;2.00;;;;;;;;;;4993545;28;20482;-71
2023/07/15 13:15:51;;;;;;;53.73;2.17;;;;;;;;;;4993320;28;20463;-71
2023/07/15 13:18:19;;;;;;;54.17;2.10;;;;;;;;;;4993398;28;20455;-71
2023/07/15 13:20:46;;;;;;;54.00;2.20;;;;;;;;;;4993122;28;20674;-71
2023/07/15 13:23:15;;;;;;;53.93;2.10;;;;;;;;;;4993100;28;20978;-72
2023/07/15 13:25:43;;;;;;;54.10;1.97;;;;;;;;;;4993396;28;21014;-71
2023/07/15 13:28:10;;;;;;;53.37;1.80;;;;;;;;;;4993311;28;20454;-71
2023/07/15 13:30:37;;;;;;;54.10;2.10;;;;;;;;;;4993153;28;20450;-71
2023/07/15 13:33:05;;;;;;;53.83;1.87;;;;;;;;;;4993090;28;20478;-72
2023/07/15 13:35:32;;;;;;;54.00;1.90;;;;;;;;;;4992987;28;20486;-71
2023/07/15 13:37:59;;;;;;;53.93;1.83;;;;;;;;;;4993189;28;20453;-71
2023/07/15 13:40:28;;;;;;;54.40;1.90;;;;;;;;;;4992681;28;20455;-71
2023/07/15 13:42:58;;;;;;;54.20;1.87;;;;;;;;;;4993208;28;20477;-71
2023/07/15 13:45:25;;;;;;;54.20;2.20;;;;;;;;;;4992833;28;20482;-71
2023/07/15 13:47:52;;;;;;;53.40;1.67;;;;;;;;;;4992828;28;20447;-71
2023/07/15 13:50:20;;;;;;;54.57;1.93;;;;;;;;;;4992665;28;20550;-71
2023/07/15 13:52:47;;;;;;;54.27;1.90;;;;;;;;;;4992869;28;20469;-71
2023/07/15 13:55:15;;;;;;;54.73;2.17;;;;;;;;;;4992744;28;20935;-71
2023/07/15 13:57:43;;;;;;;54.30;2.30;;;;;;;;;;4992809;28;20451;-71
2023/07/15 14:00:11;;;;;;;57.57;3.03;;;;;;;;;;4992456;28;20462;-71
2023/07/15 14:02:38;;;;;;;54.10;2.00;;;;;;;;;;4992321;28;20541;-71
2023/07/15 14:05:06;;;;;;;54.87;2.10;;;;;;;;;;4992743;28;20447;-71
2023/07/15 14:07:33;;;;;;;54.27;1.87;;;;;;;;;;4992400;28;20462;-71
2023/07/15 14:10:00;;;;;;;54.30;1.90;;;;;;;;;;4992499;28;20450;-72
2023/07/15 14:12:28;;;;;;;54.27;1.80;;;;;;;;;;4991562;28;20483;-71
2023/07/15 14:14:56;;;;;;;54.33;2.10;;;;;;;;;;4991940;28;20501;-71
2023/07/15 14:17:23;;;;;;;54.83;1.73;;;;;;;;;;4992134;28;20459;-71
2023/07/15 14:19:50;;;;;;;53.97;1.90;;;;;;;;;;4992139;28;20459;-71
2023/07/15 14:22:17;;;;;;;55.20;2.60;;;;;;;;;;4991969;28;20502;-71
2023/07/15 14:24:44;;;;;;;54.67;1.80;;;;;;;;;;4992350;28;20453;-71
2023/07/15 14:27:13;;;;;;;55.30;2.77;;;;;;;;;;4992122;28;20443;-71
2023/07/15 14:29:40;;;;;;;54.87;1.80;;;;;;;;;;4992500;28;20522;-71
2023/07/15 14:32:10;;;;;;;54.80;2.07;;;;;;;;;;4991619;28;20467;-71
2023/07/15 14:34:37;;;;;;;54.57;2.20;;;;;;;;;;4991940;28;20491;-71